Terry, Montana
Current Conditions -  °F | °C
As of 5:15 AM on Thursday 23 Oct 2014 (Local Time) from KGDV Reporting Station
Clear Clear  
Wind Chill: 24°   Ceiling: Unl
Heat Index: 32°   Visibility: 10mi
Dew Point: 27°   Wind: 10mph
Humidity: 80%   Direction: 170°S
Pressure: 29.89"   Gusts: NA
Location:  46.79°N, 105.31°W
Report Text: KGDV 231115Z AUTO 17009KT 10SM CLR 00/M03 A2989 RMK AO1
Loading
Personal Weather Stations






























Interactive Weather Map
Tropical Storm Tracking
New forecast layout! Learn more

10-Day Weather Forecast

Advertisements
Track Severe Weather on mobile